Time;durP1;ratioP1;P1;durP2;ratioP2;P2;SDS_P1;SDS_P2;PMS_P1;PMS_P2;Temp;Humidity;BMP_temperature;BMP_pressure;BME280_temperature;BME280_humidity;BME280_pressure;Samples;Min_cycle;Max_cycle;Signal;HPM_P1;HPM_P2
2022/06/13 00:02:00;;;;;;;0.10;0.10;;;;;;;;;;4886463;29;20122;-91
2022/06/13 00:04:26;;;;;;;0.20;0.20;;;;;;;;;;4901701;29;20548;-91
2022/06/13 00:06:52;;;;;;;0.13;0.13;;;;;;;;;;4901852;29;20400;-91
2022/06/13 00:09:18;;;;;;;0.10;0.10;;;;;;;;;;4886235;29;20080;-91
2022/06/13 00:11:44;;;;;;;0.10;0.10;;;;;;;;;;4886012;29;20083;-90
2022/06/13 00:14:10;;;;;;;0.10;0.10;;;;;;;;;;4917127;29;20047;-90
2022/06/13 00:16:36;;;;;;;0.10;0.10;;;;;;;;;;4886012;29;20491;-90
2022/06/13 00:19:02;;;;;;;0.10;0.10;;;;;;;;;;4885889;29;20087;-90
2022/06/13 00:21:29;;;;;;;0.10;0.10;;;;;;;;;;4885822;29;20044;-89
2022/06/13 00:23:55;;;;;;;0.10;0.10;;;;;;;;;;4885893;29;20054;-90
2022/06/13 00:26:21;;;;;;;0.10;0.10;;;;;;;;;;4901645;29;20457;-90
2022/06/13 00:28:48;;;;;;;0.10;0.10;;;;;;;;;;4885805;29;20044;-90
2022/06/13 00:31:14;;;;;;;0.10;0.10;;;;;;;;;;4885660;29;20062;-90
2022/06/13 00:33:40;;;;;;;0.10;0.10;;;;;;;;;;4901167;29;20044;-90
2022/06/13 00:36:06;;;;;;;0.30;0.30;;;;;;;;;;4885257;29;20095;-91
2022/06/13 00:38:32;;;;;;;0.10;0.10;;;;;;;;;;4885256;29;20048;-90
2022/06/13 00:40:58;;;;;;;0.10;0.10;;;;;;;;;;4901183;29;20484;-89
2022/06/13 00:43:24;;;;;;;0.10;0.10;;;;;;;;;;4901444;29;20096;-91
2022/06/13 00:45:50;;;;;;;0.10;0.10;;;;;;;;;;4885545;29;20048;-91
2022/06/13 00:48:17;;;;;;;0.10;0.10;;;;;;;;;;4885452;29;20504;-90
2022/06/13 00:50:47;;;;;;;0.10;0.10;;;;;;;;;;4885297;29;20071;-91
2022/06/13 00:53:27;;;;;;;0.10;0.10;;;;;;;;;;4885493;29;20401;-90
2022/06/13 00:55:54;;;;;;;0.10;0.10;;;;;;;;;;4901053;29;20048;-91
2022/06/13 00:58:20;;;;;;;0.10;0.10;;;;;;;;;;4885300;29;20040;-91
2022/06/13 01:00:47;;;;;;;0.10;0.10;;;;;;;;;;4885349;29;20131;-90
2022/06/13 01:03:13;;;;;;;0.10;0.10;;;;;;;;;;4900605;29;20135;-91
2022/06/13 01:05:40;;;;;;;0.10;0.10;;;;;;;;;;4885195;29;20052;-91
2022/06/13 01:08:07;;;;;;;0.10;0.10;;;;;;;;;;4885050;29;20048;-91
2022/06/13 01:13:18;;;;;;;0.10;0.10;;;;;;;;;;4902788;29;20136;-91
2022/06/13 01:15:47;;;;;;;0.10;0.10;;;;;;;;;;4885113;29;20179;-90
2022/06/13 01:18:17;;;;;;;0.10;0.10;;;;;;;;;;4885271;29;20054;-90
2022/06/13 01:21:04;;;;;;;0.10;0.10;;;;;;;;;;4900554;29;20103;-91
2022/06/13 01:23:31;;;;;;;0.10;0.10;;;;;;;;;;4881412;29;20063;-90
2022/06/13 01:26:10;;;;;;;0.10;0.10;;;;;;;;;;4900186;29;20090;-90
2022/06/13 01:28:46;;;;;;;0.10;0.10;;;;;;;;;;4900209;29;20040;-90
2022/06/13 01:31:22;;;;;;;0.10;0.10;;;;;;;;;;4900245;29;20409;-90
2022/06/13 01:34:05;;;;;;;0.10;0.10;;;;;;;;;;4884601;29;20060;-90
2022/06/13 01:36:34;;;;;;;0.10;0.10;;;;;;;;;;4884881;29;20127;-90
2022/06/13 01:39:07;;;;;;;0.10;0.10;;;;;;;;;;4900053;29;20060;-91
2022/06/13 01:41:36;;;;;;;0.10;0.10;;;;;;;;;;4884808;29;20044;-91
2022/06/13 01:44:14;;;;;;;0.10;0.10;;;;;;;;;;4900126;29;20123;-91
2022/06/13 01:46:42;;;;;;;0.10;0.10;;;;;;;;;;4899904;29;20048;-91
2022/06/13 01:49:26;;;;;;;0.10;0.10;;;;;;;;;;4883464;29;20530;-90
2022/06/13 01:52:01;;;;;;;0.40;0.40;;;;;;;;;;4899777;29;20080;-90
2022/06/13 01:54:33;;;;;;;0.10;0.10;;;;;;;;;;4884253;29;20040;-92
2022/06/13 01:57:02;;;;;;;0.10;0.10;;;;;;;;;;4884731;29;20036;-91
2022/06/13 01:59:47;;;;;;;0.10;0.10;;;;;;;;;;4884445;29;20080;-90
2022/06/13 02:02:17;;;;;;;0.10;0.10;;;;;;;;;;4915522;29;20396;-91
2022/06/13 02:05:03;;;;;;;0.10;0.10;;;;;;;;;;4899664;29;20050;-90
2022/06/13 02:07:31;;;;;;;0.10;0.10;;;;;;;;;;4915128;29;20064;-90
2022/06/13 02:10:01;;;;;;;0.10;0.10;;;;;;;;;;4899522;29;20099;-92
2022/06/13 02:12:29;;;;;;;0.10;0.10;;;;;;;;;;4884089;29;20040;-91
2022/06/13 02:14:59;;;;;;;0.10;0.10;;;;;;;;;;4899608;29;20548;-92
2022/06/13 02:17:27;;;;;;;0.10;0.10;;;;;;;;;;4884008;29;20044;-91
2022/06/13 02:20:07;;;;;;;0.10;0.10;;;;;;;;;;4883903;29;20413;-91
2022/06/13 02:22:39;;;;;;;0.10;0.10;;;;;;;;;;4884120;29;20131;-91
2022/06/13 02:25:05;;;;;;;0.10;0.10;;;;;;;;;;4883816;29;20055;-92
2022/06/13 02:27:33;;;;;;;0.10;0.10;;;;;;;;;;4899329;29;20052;-90
2022/06/13 02:29:59;;;;;;;0.10;0.10;;;;;;;;;;4883850;29;20485;-92
2022/06/13 02:32:28;;;;;;;0.10;0.10;;;;;;;;;;4883599;29;20044;-91
2022/06/13 02:35:01;;;;;;;0.10;0.10;;;;;;;;;;4883892;29;20418;-92
2022/06/13 02:37:47;;;;;;;0.10;0.10;;;;;;;;;;4883716;29;20099;-91
2022/06/13 02:40:18;;;;;;;0.10;0.10;;;;;;;;;;4914591;29;20054;-91
2022/06/13 02:42:49;;;;;;;0.10;0.10;;;;;;;;;;4899241;29;20050;-91
2022/06/13 02:45:16;;;;;;;0.10;0.10;;;;;;;;;;4899109;29;20530;-93
2022/06/13 02:47:43;;;;;;;0.10;0.10;;;;;;;;;;4883691;29;20476;-92
2022/06/13 02:50:10;;;;;;;0.10;0.10;;;;;;;;;;4899009;29;20096;-92
2022/06/13 02:52:45;;;;;;;0.10;0.10;;;;;;;;;;4883474;29;20107;-92
2022/06/13 02:55:11;;;;;;;0.10;0.10;;;;;;;;;;4899242;29;20489;-91
2022/06/13 02:57:39;;;;;;;0.10;0.10;;;;;;;;;;4898940;29;20369;-91
2022/06/13 03:00:22;;;;;;;0.10;0.10;;;;;;;;;;4884581;29;20138;-91
2022/06/13 03:02:47;;;;;;;;;;;;;;;;;;4903193;29;20044;-91
2022/06/13 03:05:32;;;;;;;0.10;0.10;;;;;;;;;;4902592;29;19967;-90
2022/06/13 03:08:07;;;;;;;0.10;0.10;;;;;;;;;;4918368;29;20051;-90
2022/06/13 03:10:39;;;;;;;0.10;0.10;;;;;;;;;;4902738;29;20444;-90
2022/06/13 03:13:06;;;;;;;0.10;0.10;;;;;;;;;;4902975;29;20119;-91
2022/06/13 03:15:32;;;;;;;0.10;0.10;;;;;;;;;;4902849;29;20044;-91
2022/06/13 03:18:00;;;;;;;0.10;0.10;;;;;;;;;;4902733;29;20221;-90
2022/06/13 03:20:30;;;;;;;0.10;0.10;;;;;;;;;;4902702;29;20475;-89
2022/06/13 03:23:05;;;;;;;0.10;0.10;;;;;;;;;;4902383;29;20079;-92
2022/06/13 03:25:33;;;;;;;0.10;0.10;;;;;;;;;;4902213;29;20055;-89
2022/06/13 03:28:23;;;;;;;0.10;0.10;;;;;;;;;;4902426;29;20131;-89
2022/06/13 03:30:53;;;;;;;0.10;0.10;;;;;;;;;;4910412;29;20052;-88
2022/06/13 03:36:26;;;;;;;0.10;0.10;;;;;;;;;;4904801;29;20047;-91
2022/06/13 03:38:52;;;;;;;0.10;0.10;;;;;;;;;;4901170;29;20123;-91
2022/06/13 03:41:18;;;;;;;0.10;0.10;;;;;;;;;;4901945;29;20484;-90
2022/06/13 03:43:46;;;;;;;0.10;0.10;;;;;;;;;;4902108;29;20048;-91
2022/06/13 03:46:14;;;;;;;0.10;0.10;;;;;;;;;;4886659;29;20048;-92
2022/06/13 03:48:44;;;;;;;0.10;0.10;;;;;;;;;;4886955;29;20044;-91
2022/06/13 03:51:09;;;;;;;0.10;0.10;;;;;;;;;;4886382;29;20063;-92
2022/06/13 03:53:43;;;;;;;0.10;0.10;;;;;;;;;;4917643;29;20048;-91
2022/06/13 03:56:19;;;;;;;0.10;0.10;;;;;;;;;;4886556;29;20503;-90
2022/06/13 03:58:46;;;;;;;0.10;0.10;;;;;;;;;;4917803;29;20052;-91
2022/06/13 04:01:13;;;;;;;0.10;0.10;;;;;;;;;;4901875;29;20053;-91
2022/06/13 04:03:39;;;;;;;0.20;0.20;;;;;;;;;;4886481;29;20051;-91
2022/06/13 04:06:06;;;;;;;0.10;0.10;;;;;;;;;;4886401;29;20047;-91
2022/06/13 04:08:36;;;;;;;0.10;0.10;;;;;;;;;;4886103;29;20062;-91
2022/06/13 04:11:02;;;;;;;0.10;0.10;;;;;;;;;;4885685;29;20138;-91
2022/06/13 04:13:54;;;;;;;0.10;0.10;;;;;;;;;;4901171;29;20076;-90
2022/06/13 04:16:40;;;;;;;0.10;0.10;;;;;;;;;;4887382;29;20056;-91
2022/06/13 04:19:09;;;;;;;0.10;0.10;;;;;;;;;;4901319;29;20048;-90
2022/06/13 04:21:39;;;;;;;0.10;0.10;;;;;;;;;;4901617;29;20044;-91
2022/06/13 04:24:15;;;;;;;0.20;0.20;;;;;;;;;;4901436;29;20079;-90
2022/06/13 04:26:43;;;;;;;0.10;0.10;;;;;;;;;;4885823;29;20503;-90
2022/06/13 04:29:09;;;;;;;0.10;0.10;;;;;;;;;;4885737;29;20389;-90
2022/06/13 04:31:35;;;;;;;0.10;0.10;;;;;;;;;;4901143;29;20047;-90
2022/06/13 04:34:21;;;;;;;0.10;0.10;;;;;;;;;;4885660;29;20696;-91
2022/06/13 04:36:47;;;;;;;0.10;0.10;;;;;;;;;;4916902;29;20040;-91
2022/06/13 04:39:14;;;;;;;0.10;0.10;;;;;;;;;;4885586;29;20044;-90
2022/06/13 04:41:41;;;;;;;0.10;0.10;;;;;;;;;;4901225;29;20041;-90
2022/06/13 04:44:07;;;;;;;0.50;0.25;;;;;;;;;;4901179;29;20036;-90
2022/06/13 04:46:33;;;;;;;0.57;0.57;;;;;;;;;;4901020;29;20480;-91
2022/06/13 04:49:00;;;;;;;0.10;0.10;;;;;;;;;;4885422;29;20048;-90
2022/06/13 04:51:28;;;;;;;0.20;0.20;;;;;;;;;;4885161;29;20063;-90
2022/06/13 04:53:55;;;;;;;0.30;0.30;;;;;;;;;;4885252;29;20079;-90
2022/06/13 04:56:21;;;;;;;0.10;0.10;;;;;;;;;;4901026;29;20240;-90
2022/06/13 04:58:47;;;;;;;0.10;0.10;;;;;;;;;;4885460;29;20563;-91
2022/06/13 05:01:19;;;;;;;0.10;0.10;;;;;;;;;;4885286;29;20453;-90
2022/06/13 05:03:47;;;;;;;0.10;0.10;;;;;;;;;;4900837;29;20362;-91
2022/06/13 05:06:31;;;;;;;0.10;0.10;;;;;;;;;;4885310;29;20040;-91
2022/06/13 05:08:59;;;;;;;0.10;0.10;;;;;;;;;;4900344;29;20047;-92
2022/06/13 05:11:27;;;;;;;0.10;0.10;;;;;;;;;;4885034;29;20048;-91
2022/06/13 05:13:54;;;;;;;0.10;0.10;;;;;;;;;;4885114;29;20111;-90
2022/06/13 05:16:35;;;;;;;0.10;0.10;;;;;;;;;;4884967;29;20123;-91
2022/06/13 05:19:20;;;;;;;0.10;0.10;;;;;;;;;;4900327;29;20622;-91
2022/06/13 05:22:19;;;;;;;0.20;0.20;;;;;;;;;;4916207;29;20404;-91
2022/06/13 05:25:01;;;;;;;0.20;0.20;;;;;;;;;;4879702;29;20059;-91
2022/06/13 05:27:27;;;;;;;0.30;0.30;;;;;;;;;;4884651;29;20103;-91
2022/06/13 05:29:53;;;;;;;0.10;0.10;;;;;;;;;;4884777;29;20052;-92
2022/06/13 05:32:19;;;;;;;0.10;0.10;;;;;;;;;;4900105;29;20040;-91
2022/06/13 05:34:45;;;;;;;0.10;0.10;;;;;;;;;;4884969;29;20048;-91
2022/06/13 05:37:12;;;;;;;0.20;0.20;;;;;;;;;;4900306;29;20040;-91
2022/06/13 05:39:38;;;;;;;0.10;0.10;;;;;;;;;;4884493;29;20044;-91
2022/06/13 05:42:04;;;;;;;0.20;0.20;;;;;;;;;;4900106;29;20047;-91
2022/06/13 05:44:30;;;;;;;0.10;0.10;;;;;;;;;;4900045;29;20055;-92
2022/06/13 05:46:56;;;;;;;0.10;0.10;;;;;;;;;;4884702;29;20040;-95
2022/06/13 05:49:22;;;;;;;0.47;0.47;;;;;;;;;;4884530;29;20092;-93
2022/06/13 05:51:49;;;;;;;0.20;0.20;;;;;;;;;;4884414;29;20055;-93
2022/06/13 05:54:14;;;;;;;0.10;0.10;;;;;;;;;;4884505;29;20496;-93
2022/06/13 05:56:41;;;;;;;0.10;0.10;;;;;;;;;;4868730;29;20086;-91
2022/06/13 05:59:06;;;;;;;0.10;0.10;;;;;;;;;;4868726;29;20079;-91
2022/06/13 06:01:35;;;;;;;0.10;0.10;;;;;;;;;;4884095;29;20075;-90
2022/06/13 06:04:02;;;;;;;1.02;1.00;;;;;;;;;;4868771;29;20488;-91
2022/06/13 06:06:28;;;;;;;0.10;0.10;;;;;;;;;;4884055;29;20377;-91
2022/06/13 06:08:54;;;;;;;0.10;0.10;;;;;;;;;;4868611;29;20043;-91
2022/06/13 06:11:20;;;;;;;0.10;0.10;;;;;;;;;;4883897;29;20040;-94
2022/06/13 06:13:49;;;;;;;0.10;0.10;;;;;;;;;;4868595;29;20060;-91
2022/06/13 06:16:16;;;;;;;0.10;0.10;;;;;;;;;;4884373;29;20040;-90
2022/06/13 06:18:42;;;;;;;0.10;0.10;;;;;;;;;;4884465;29;20385;-91
2022/06/13 06:21:08;;;;;;;0.17;0.17;;;;;;;;;;4884219;29;20044;-89
2022/06/13 06:23:35;;;;;;;0.10;0.10;;;;;;;;;;4868555;29;20451;-90
2022/06/13 06:26:03;;;;;;;0.10;0.10;;;;;;;;;;4868353;29;20142;-92
2022/06/13 06:28:35;;;;;;;0.10;0.10;;;;;;;;;;4884055;29;20047;-93
2022/06/13 06:31:01;;;;;;;0.10;0.10;;;;;;;;;;4882764;29;20059;-91
2022/06/13 06:33:27;;;;;;;0.28;0.28;;;;;;;;;;4868354;29;20412;-89
2022/06/13 06:35:53;;;;;;;0.10;0.10;;;;;;;;;;4883050;29;20519;-88
2022/06/13 06:38:23;;;;;;;0.10;0.10;;;;;;;;;;4883603;29;20040;-89
2022/06/13 06:40:49;;;;;;;0.10;0.10;;;;;;;;;;4868455;29;20040;-86
2022/06/13 06:43:15;;;;;;;0.35;0.20;;;;;;;;;;4883475;29;20051;-91
2022/06/13 06:45:44;;;;;;;0.10;0.10;;;;;;;;;;4867584;29;20113;-88
2022/06/13 06:48:41;;;;;;;0.10;0.10;;;;;;;;;;4868631;29;20052;-94
2022/06/13 06:51:10;;;;;;;0.10;0.10;;;;;;;;;;4893870;29;20504;-95
2022/06/13 07:01:53;;;;;;;0.10;0.10;;;;;;;;;;4901352;29;20079;-92
2022/06/13 07:04:19;;;;;;;0.10;0.10;;;;;;;;;;4883467;29;20044;-91
2022/06/13 07:06:45;;;;;;;0.10;0.10;;;;;;;;;;4883537;29;20044;-90
2022/06/13 07:09:11;;;;;;;0.10;0.10;;;;;;;;;;4898664;29;20485;-89
2022/06/13 07:11:55;;;;;;;0.10;0.10;;;;;;;;;;4883255;29;20094;-90
2022/06/13 07:14:31;;;;;;;0.10;0.10;;;;;;;;;;4886029;29;20100;-92
2022/06/13 07:16:59;;;;;;;0.10;0.10;;;;;;;;;;4899254;29;20131;-91
2022/06/13 07:19:25;;;;;;;0.10;0.10;;;;;;;;;;4899188;29;20048;-92
2022/06/13 07:21:51;;;;;;;0.10;0.10;;;;;;;;;;4883455;29;20100;-89
2022/06/13 07:24:17;;;;;;;0.10;0.10;;;;;;;;;;4883495;29;20044;-89
2022/06/13 07:26:43;;;;;;;0.10;0.10;;;;;;;;;;4883367;29;20496;-89
2022/06/13 07:29:09;;;;;;;0.30;0.30;;;;;;;;;;4883028;29;20040;-90
2022/06/13 07:31:42;;;;;;;0.10;0.10;;;;;;;;;;4883311;29;20044;-89
2022/06/13 07:34:11;;;;;;;0.20;0.20;;;;;;;;;;4883022;29;20047;-89
2022/06/13 07:36:37;;;;;;;0.40;0.40;;;;;;;;;;4882986;29;20043;-89
2022/06/13 07:39:03;;;;;;;0.30;0.30;;;;;;;;;;4898838;29;20032;-89
2022/06/13 07:41:31;;;;;;;0.10;0.10;;;;;;;;;;4898935;29;20507;-90
2022/06/13 07:43:57;;;;;;;3.25;0.30;;;;;;;;;;4882747;29;20134;-91
2022/06/13 07:46:35;;;;;;;0.10;0.10;;;;;;;;;;4884593;29;20079;-94
2022/06/13 07:49:02;;;;;;;0.10;0.10;;;;;;;;;;4917232;29;20059;-92
2022/06/13 07:51:31;;;;;;;0.40;0.40;;;;;;;;;;4901987;29;20071;-93
2022/06/13 07:53:57;;;;;;;0.20;0.20;;;;;;;;;;4887031;29;20051;-92
2022/06/13 07:56:24;;;;;;;0.20;0.20;;;;;;;;;;4886750;29;20037;-93
2022/06/13 07:58:52;;;;;;;0.10;0.10;;;;;;;;;;4887151;29;20107;-93
2022/06/13 08:01:24;;;;;;;0.10;0.10;;;;;;;;;;4902776;29;20060;-93
2022/06/13 08:03:51;;;;;;;0.10;0.10;;;;;;;;;;4902058;29;20040;-92
2022/06/13 08:06:21;;;;;;;0.10;0.10;;;;;;;;;;4887095;29;20048;-92
2022/06/13 08:08:47;;;;;;;0.20;0.20;;;;;;;;;;4902572;29;20060;-93
2022/06/13 08:11:17;;;;;;;0.10;0.10;;;;;;;;;;4886398;29;20044;-93
2022/06/13 08:14:06;;;;;;;0.10;0.10;;;;;;;;;;4903170;29;20051;-96
2022/06/13 08:16:39;;;;;;;0.10;0.10;;;;;;;;;;4905472;29;20046;-96
2022/06/13 08:19:05;;;;;;;0.10;0.10;;;;;;;;;;4903780;29;20070;-96
2022/06/13 08:21:33;;;;;;;0.10;0.10;;;;;;;;;;4888369;29;20059;-95
2022/06/13 08:23:59;;;;;;;0.20;0.20;;;;;;;;;;4890060;29;20044;-91
2022/06/13 08:26:33;;;;;;;0.10;0.10;;;;;;;;;;4892119;29;20115;-96
2022/06/13 08:28:59;;;;;;;0.10;0.10;;;;;;;;;;4888827;29;20040;-94
2022/06/13 08:31:25;;;;;;;0.17;0.17;;;;;;;;;;4888831;29;20052;-94
2022/06/13 08:33:54;;;;;;;0.10;0.10;;;;;;;;;;4894781;29;20036;-93
2022/06/13 08:36:23;;;;;;;0.30;0.30;;;;;;;;;;4909284;29;20129;-95
2022/06/13 08:38:49;;;;;;;0.10;0.10;;;;;;;;;;4890908;29;20048;-95
2022/06/13 08:41:19;;;;;;;0.10;0.10;;;;;;;;;;4890706;29;20052;-95
2022/06/13 08:44:01;;;;;;;0.10;0.10;;;;;;;;;;4902443;29;20124;-93
2022/06/13 08:46:33;;;;;;;0.10;0.10;;;;;;;;;;4886898;29;20044;-95
2022/06/13 08:49:06;;;;;;;0.10;0.10;;;;;;;;;;4887712;29;20040;-95
2022/06/13 08:52:04;;;;;;;0.10;0.10;;;;;;;;;;4888132;29;20056;-94
2022/06/13 08:55:11;;;;;;;0.95;0.95;;;;;;;;;;4941968;23;20105;-96
2022/06/13 08:58:09;;;;;;;1.48;1.33;;;;;;;;;;4909534;29;20055;-96
2022/06/13 09:00:56;;;;;;;0.93;0.50;;;;;;;;;;4917243;29;20091;-91
2022/06/13 09:03:32;;;;;;;1.08;0.52;;;;;;;;;;4870026;29;20217;-88
2022/06/13 09:06:03;;;;;;;0.20;0.20;;;;;;;;;;4885159;29;20043;-88
2022/06/13 09:08:35;;;;;;;0.38;0.38;;;;;;;;;;4869611;29;20044;-87
2022/06/13 09:11:21;;;;;;;0.75;0.75;;;;;;;;;;4885191;29;20052;-89
2022/06/13 09:13:50;;;;;;;0.20;0.20;;;;;;;;;;4890935;29;20460;-87
2022/06/13 09:16:17;;;;;;;0.20;0.20;;;;;;;;;;4900691;29;20064;-86
2022/06/13 09:18:46;;;;;;;0.20;0.20;;;;;;;;;;4884844;29;20550;-86
2022/06/13 09:21:16;;;;;;;0.20;0.20;;;;;;;;;;4884938;29;20523;-86
2022/06/13 09:23:46;;;;;;;0.47;0.47;;;;;;;;;;4900276;29;20139;-87
2022/06/13 09:26:16;;;;;;;0.20;0.20;;;;;;;;;;4884753;29;20547;-87
2022/06/13 09:28:53;;;;;;;0.90;0.88;;;;;;;;;;4869543;29;20155;-88
2022/06/13 09:31:23;;;;;;;0.40;0.38;;;;;;;;;;4884513;29;20040;-88
2022/06/13 09:33:52;;;;;;;0.52;0.52;;;;;;;;;;4884826;29;20055;-86
2022/06/13 09:36:20;;;;;;;0.40;0.40;;;;;;;;;;4884588;29;20040;-88
2022/06/13 09:38:51;;;;;;;0.30;0.30;;;;;;;;;;4884888;29;20384;-91
2022/06/13 09:41:17;;;;;;;0.43;0.43;;;;;;;;;;4867292;29;20080;-87
2022/06/13 09:43:44;;;;;;;0.20;0.20;;;;;;;;;;4884223;29;20094;-88
2022/06/13 09:46:16;;;;;;;0.20;0.20;;;;;;;;;;4891244;29;20044;-87
2022/06/13 09:48:55;;;;;;;0.40;0.40;;;;;;;;;;4915647;29;20059;-87
2022/06/13 09:51:33;;;;;;;0.10;0.10;;;;;;;;;;4900233;29;20476;-86
2022/06/13 09:54:04;;;;;;;0.10;0.10;;;;;;;;;;4899656;29;20083;-87
2022/06/13 09:56:33;;;;;;;1.02;0.32;;;;;;;;;;4899399;29;20075;-89
2022/06/13 09:59:02;;;;;;;0.10;0.10;;;;;;;;;;4915603;29;20044;-90
2022/06/13 10:01:38;;;;;;;0.10;0.10;;;;;;;;;;4900149;29;20040;-89
2022/06/13 10:04:05;;;;;;;0.10;0.10;;;;;;;;;;4900839;29;20059;-88
2022/06/13 10:06:40;;;;;;;0.10;0.10;;;;;;;;;;4899448;29;20119;-87
2022/06/13 10:09:06;;;;;;;0.10;0.10;;;;;;;;;;4867901;29;20389;-87
2022/06/13 10:11:58;;;;;;;0.13;0.13;;;;;;;;;;4909779;29;20044;-87
2022/06/13 10:14:24;;;;;;;;;;;;;;;;;;4897166;29;20048;-86
2022/06/13 10:17:09;;;;;;;0.20;0.20;;;;;;;;;;4899718;29;20275;-87
2022/06/13 10:19:38;;;;;;;0.10;0.10;;;;;;;;;;4915189;29;20051;-87
2022/06/13 10:22:04;;;;;;;0.10;0.10;;;;;;;;;;4915071;29;20056;-86
2022/06/13 10:24:40;;;;;;;0.10;0.10;;;;;;;;;;4915215;29;20048;-87
2022/06/13 10:27:38;;;;;;;0.20;0.20;;;;;;;;;;4900334;29;20055;-87
2022/06/13 10:30:23;;;;;;;0.10;0.10;;;;;;;;;;4874968;29;20112;-87
2022/06/13 10:32:56;;;;;;;0.10;0.10;;;;;;;;;;4899488;29;20040;-86
2022/06/13 10:35:31;;;;;;;0.20;0.20;;;;;;;;;;4918121;29;20037;-87
2022/06/13 10:38:07;;;;;;;0.10;0.10;;;;;;;;;;4917220;29;20036;-87
2022/06/13 10:40:33;;;;;;;0.10;0.10;;;;;;;;;;4895537;29;20051;-86
2022/06/13 10:42:59;;;;;;;0.10;0.10;;;;;;;;;;4897665;29;20047;-88
2022/06/13 10:45:25;;;;;;;0.10;0.10;;;;;;;;;;4905440;29;20104;-88
2022/06/13 10:47:54;;;;;;;0.20;0.20;;;;;;;;;;4891496;29;20036;-87
2022/06/13 10:50:26;;;;;;;0.10;0.10;;;;;;;;;;4922445;29;20044;-89
2022/06/13 10:52:53;;;;;;;0.10;0.10;;;;;;;;;;4890396;29;20040;-87
2022/06/13 10:55:21;;;;;;;0.30;0.30;;;;;;;;;;4887203;29;20143;-87
2022/06/13 10:57:52;;;;;;;1.55;1.45;;;;;;;;;;4868169;29;20049;-87
2022/06/13 11:00:19;;;;;;;4.20;1.98;;;;;;;;;;4885827;29;20051;-87
2022/06/13 11:02:45;;;;;;;1.40;1.25;;;;;;;;;;4867622;29;20040;-88
2022/06/13 11:05:23;;;;;;;0.68;0.40;;;;;;;;;;4867973;29;20044;-88
2022/06/13 11:07:50;;;;;;;0.28;0.28;;;;;;;;;;4883390;29;20127;-89
2022/06/13 11:10:25;;;;;;;0.25;0.25;;;;;;;;;;4867899;29;20068;-88
2022/06/13 11:12:51;;;;;;;0.20;0.20;;;;;;;;;;4883064;29;20040;-89
2022/06/13 11:23:49;;;;;;;0.20;0.20;;;;;;;;;;4889143;29;20045;-91
2022/06/13 11:29:02;;;;;;;0.38;0.38;;;;;;;;;;4902614;29;20044;-91
2022/06/13 11:31:29;;;;;;;0.38;0.38;;;;;;;;;;4871548;29;20044;-92
2022/06/13 11:33:55;;;;;;;1.02;1.02;;;;;;;;;;4871453;29;20051;-90
2022/06/13 11:36:22;;;;;;;2.10;1.50;;;;;;;;;;4886911;29;20444;-90
2022/06/13 11:38:59;;;;;;;0.98;0.98;;;;;;;;;;4871437;29;20044;-92
2022/06/13 11:41:44;;;;;;;1.65;1.55;;;;;;;;;;4902482;29;20051;-94
2022/06/13 11:44:18;;;;;;;0.45;0.45;;;;;;;;;;4889230;29;20055;-94
2022/06/13 11:46:50;;;;;;;0.20;0.20;;;;;;;;;;4873490;29;20048;-95
2022/06/13 11:49:16;;;;;;;0.10;0.10;;;;;;;;;;4905528;29;20564;-94
2022/06/13 11:51:56;;;;;;;0.30;0.30;;;;;;;;;;4904210;29;20408;-95
2022/06/13 11:54:30;;;;;;;0.20;0.20;;;;;;;;;;4871954;29;20060;-94
2022/06/13 11:57:17;;;;;;;0.20;0.20;;;;;;;;;;4872859;29;20131;-94
2022/06/13 11:59:55;;;;;;;0.75;0.73;;;;;;;;;;4919167;29;20055;-94
2022/06/13 12:02:22;;;;;;;0.20;0.20;;;;;;;;;;4902878;29;20543;-93
2022/06/13 12:04:48;;;;;;;0.10;0.10;;;;;;;;;;4872143;29;20047;-94
2022/06/13 12:07:24;;;;;;;0.20;0.20;;;;;;;;;;4871830;29;20048;-94
2022/06/13 12:09:53;;;;;;;0.10;0.10;;;;;;;;;;4872668;29;20083;-92
2022/06/13 12:12:19;;;;;;;0.20;0.20;;;;;;;;;;4870810;29;20059;-91
2022/06/13 12:14:45;;;;;;;0.17;0.17;;;;;;;;;;4871706;29;20040;-91
2022/06/13 12:17:11;;;;;;;0.20;0.20;;;;;;;;;;4871373;29;20055;-91
2022/06/13 12:19:37;;;;;;;1.08;0.20;;;;;;;;;;4901841;29;20095;-92
2022/06/13 12:22:09;;;;;;;0.20;0.20;;;;;;;;;;4900788;29;20400;-92
2022/06/13 12:24:54;;;;;;;0.20;0.20;;;;;;;;;;4900612;29;20047;-92
2022/06/13 12:27:33;;;;;;;0.13;0.13;;;;;;;;;;4870573;29;20092;-93
2022/06/13 12:30:04;;;;;;;0.10;0.10;;;;;;;;;;4870987;29;20449;-92
2022/06/13 12:32:31;;;;;;;0.10;0.10;;;;;;;;;;4901139;29;20048;-93
2022/06/13 12:35:00;;;;;;;0.20;0.20;;;;;;;;;;4870816;29;20136;-92
2022/06/13 12:37:29;;;;;;;0.20;0.20;;;;;;;;;;4901967;29;20059;-92
2022/06/13 12:40:11;;;;;;;0.10;0.10;;;;;;;;;;4901553;29;20132;-92
2022/06/13 12:42:39;;;;;;;0.20;0.20;;;;;;;;;;4886031;29;20048;-91
2022/06/13 12:45:23;;;;;;;0.10;0.10;;;;;;;;;;4901587;29;20295;-93
2022/06/13 12:47:49;;;;;;;0.10;0.10;;;;;;;;;;4871226;29;20050;-92
2022/06/13 12:50:31;;;;;;;0.10;0.10;;;;;;;;;;4901299;29;20126;-93
2022/06/13 12:52:57;;;;;;;;;;;;;;;;;;4870985;29;20060;-91
2022/06/13 12:55:23;;;;;;;0.13;0.13;;;;;;;;;;4901226;29;19930;-93
2022/06/13 12:57:56;;;;;;;0.10;0.10;;;;;;;;;;4901650;29;20044;-93
2022/06/13 13:00:25;;;;;;;0.10;0.10;;;;;;;;;;4901653;29;20072;-93
2022/06/13 13:03:04;;;;;;;0.10;0.10;;;;;;;;;;4901711;29;20048;-92
2022/06/13 13:05:49;;;;;;;0.10;0.10;;;;;;;;;;4901836;29;20377;-92
2022/06/13 13:08:14;;;;;;;0.10;0.10;;;;;;;;;;4901101;29;20107;-92
2022/06/13 13:10:53;;;;;;;0.10;0.10;;;;;;;;;;4903541;29;20055;-93
2022/06/13 13:13:19;;;;;;;0.10;0.10;;;;;;;;;;4904779;29;20094;-90
2022/06/13 13:15:48;;;;;;;0.10;0.10;;;;;;;;;;4885741;29;20079;-90
2022/06/13 13:18:33;;;;;;;0.20;0.20;;;;;;;;;;4869597;29;20082;-90
2022/06/13 13:21:23;;;;;;;0.20;0.20;;;;;;;;;;4900949;29;20051;-89
2022/06/13 13:23:58;;;;;;;0.10;0.10;;;;;;;;;;4893233;29;20058;-91
2022/06/13 13:26:39;;;;;;;0.10;0.10;;;;;;;;;;4869781;29;20059;-87
2022/06/13 13:29:15;;;;;;;0.10;0.10;;;;;;;;;;4900467;29;20130;-87
2022/06/13 13:31:46;;;;;;;0.10;0.10;;;;;;;;;;4884667;29;20139;-87
2022/06/13 13:34:31;;;;;;;0.10;0.10;;;;;;;;;;4884864;29;20047;-87
2022/06/13 13:37:12;;;;;;;0.10;0.10;;;;;;;;;;4900116;29;20040;-88
2022/06/13 13:39:40;;;;;;;0.10;0.10;;;;;;;;;;4884676;29;20055;-87
2022/06/13 13:42:28;;;;;;;0.98;0.20;;;;;;;;;;4869183;29;20044;-87
2022/06/13 13:45:01;;;;;;;0.10;0.10;;;;;;;;;;4899956;29;20040;-87
2022/06/13 13:47:27;;;;;;;0.10;0.10;;;;;;;;;;4899874;29;20044;-88
2022/06/13 13:50:00;;;;;;;0.10;0.10;;;;;;;;;;4884343;29;20055;-88
2022/06/13 13:52:39;;;;;;;0.10;0.10;;;;;;;;;;4868697;29;20488;-88
2022/06/13 13:55:15;;;;;;;0.10;0.10;;;;;;;;;;4884448;29;20055;-88
2022/06/13 13:57:43;;;;;;;0.10;0.10;;;;;;;;;;4899882;29;20054;-88
2022/06/13 14:00:19;;;;;;;0.10;0.10;;;;;;;;;;4900023;29;20055;-87
2022/06/13 14:03:04;;;;;;;0.20;0.20;;;;;;;;;;4884208;29;20054;-88
2022/06/13 14:05:49;;;;;;;0.30;0.30;;;;;;;;;;4915426;29;20567;-87
2022/06/13 14:08:16;;;;;;;0.10;0.10;;;;;;;;;;4899576;29;20052;-87
2022/06/13 14:10:46;;;;;;;0.10;0.10;;;;;;;;;;4883612;29;20044;-88
2022/06/13 14:13:16;;;;;;;0.75;0.75;;;;;;;;;;4884122;29;20123;-87
2022/06/13 14:15:51;;;;;;;0.10;0.10;;;;;;;;;;4915416;29;20091;-87
2022/06/13 14:18:47;;;;;;;0.10;0.10;;;;;;;;;;4915496;29;20396;-88
2022/06/13 14:21:15;;;;;;;0.15;0.15;;;;;;;;;;4912432;29;20051;-87
2022/06/13 14:23:45;;;;;;;0.10;0.10;;;;;;;;;;4884120;29;20150;-86
2022/06/13 14:26:30;;;;;;;0.10;0.10;;;;;;;;;;4882156;29;20036;-85
2022/06/13 14:28:56;;;;;;;0.40;0.40;;;;;;;;;;4899371;29;20397;-86
2022/06/13 14:31:22;;;;;;;0.10;0.10;;;;;;;;;;4907261;29;20044;-87
2022/06/13 14:36:48;;;;;;;0.10;0.10;;;;;;;;;;4915158;29;20048;-87
2022/06/13 14:39:30;;;;;;;0.10;0.10;;;;;;;;;;4915094;29;20052;-87
2022/06/13 14:42:10;;;;;;;0.13;0.13;;;;;;;;;;4914828;29;20067;-87
2022/06/13 14:44:42;;;;;;;0.28;0.28;;;;;;;;;;4883651;29;20040;-87
2022/06/13 14:47:16;;;;;;;0.10;0.10;;;;;;;;;;4915163;29;20071;-88
2022/06/13 14:49:52;;;;;;;0.10;0.10;;;;;;;;;;4899164;29;20075;-87
2022/06/13 14:52:22;;;;;;;0.10;0.10;;;;;;;;;;4898903;29;20040;-87
2022/06/13 14:54:49;;;;;;;0.10;0.10;;;;;;;;;;4883275;29;20112;-88
2022/06/13 14:57:27;;;;;;;0.10;0.10;;;;;;;;;;4898820;29;20142;-87
2022/06/13 15:00:15;;;;;;;0.10;0.10;;;;;;;;;;4914958;29;20166;-87
2022/06/13 15:02:56;;;;;;;0.10;0.10;;;;;;;;;;4883509;29;20059;-86
2022/06/13 15:05:31;;;;;;;0.10;0.10;;;;;;;;;;4914462;29;20048;-87
2022/06/13 15:08:01;;;;;;;0.10;0.10;;;;;;;;;;4899155;29;20091;-89
2022/06/13 15:10:29;;;;;;;0.10;0.10;;;;;;;;;;4898815;29;20516;-89
2022/06/13 15:12:55;;;;;;;0.10;0.10;;;;;;;;;;4883093;29;20044;-89
2022/06/13 15:15:23;;;;;;;0.10;0.10;;;;;;;;;;4883248;29;20099;-87
2022/06/13 15:17:49;;;;;;;0.10;0.10;;;;;;;;;;4895163;29;20048;-86
2022/06/13 15:20:22;;;;;;;0.10;0.10;;;;;;;;;;4867966;29;20103;-87
2022/06/13 15:22:49;;;;;;;0.10;0.10;;;;;;;;;;4898707;29;20052;-89
2022/06/13 15:25:16;;;;;;;0.20;0.20;;;;;;;;;;4867794;29;20050;-88
2022/06/13 15:27:52;;;;;;;0.10;0.10;;;;;;;;;;4867511;29;20519;-88
2022/06/13 15:30:21;;;;;;;0.10;0.10;;;;;;;;;;4883055;29;20051;-88
2022/06/13 15:32:47;;;;;;;0.10;0.10;;;;;;;;;;4898872;29;20044;-88
2022/06/13 15:35:14;;;;;;;0.10;0.10;;;;;;;;;;4883175;29;20042;-88
2022/06/13 15:37:42;;;;;;;0.10;0.10;;;;;;;;;;4885777;29;20055;-88